Aviation Digital Data Service (ADDS)

Output produced by METARs form (1238 UTC 25 September 2018)
found at http://www.aviationweather.gov/metar/data/
 
HSOB 251000Z 21007KT CAVOK 38/20 Q1012
HSSS 251230Z 23006KT 9999 FEW050 40/13 Q1008 NOSIG
HSSS 250500Z 2506/2612 22008G18KT CAVOK 
     TEMPO 2509/2515 9999 FEW040 SCT140
       
HSPN 251000Z 06011KT CAVOK 38/19 Q1008